Time;durP1;ratioP1;P1;durP2;ratioP2;P2;SDS_P1;SDS_P2;PMS_P1;PMS_P2;Temp;Humidity;BMP_temperature;BMP_pressure;BME280_temperature;BME280_humidity;BME280_pressure;Samples;Min_cycle;Max_cycle;Signal;HPM_P1;HPM_P2
2021/09/03 00:01:03;;;;;;;8.32;5.07;;;;;;;;;;6126757;23;20002;-68
2021/09/03 00:03:29;;;;;;;7.75;4.80;;;;;;;;;;6126776;23;20010;-68
2021/09/03 00:05:54;;;;;;;7.28;4.57;;;;;;;;;;6126873;23;20002;-67
2021/09/03 00:08:19;;;;;;;6.75;4.45;;;;;;;;;;6126350;23;20506;-67
2021/09/03 00:10:45;;;;;;;8.25;4.70;;;;;;;;;;6126437;23;20016;-67
2021/09/03 00:13:11;;;;;;;5.78;4.32;;;;;;;;;;6127060;23;20009;-68
2021/09/03 00:15:37;;;;;;;7.15;4.18;;;;;;;;;;6126711;23;20026;-67
2021/09/03 00:18:02;;;;;;;6.30;4.50;;;;;;;;;;6126592;23;20009;-67
2021/09/03 00:20:28;;;;;;;7.80;4.18;;;;;;;;;;6126388;23;20045;-67
2021/09/03 00:22:54;;;;;;;10.20;4.90;;;;;;;;;;6126876;23;20061;-68
2021/09/03 00:25:19;;;;;;;8.77;4.40;;;;;;;;;;6126485;23;20030;-67
2021/09/03 00:27:45;;;;;;;8.32;4.78;;;;;;;;;;6126408;23;20073;-67
2021/09/03 00:30:11;;;;;;;6.57;4.75;;;;;;;;;;6126486;23;20009;-67
2021/09/03 00:32:36;;;;;;;6.50;4.38;;;;;;;;;;6126567;23;19998;-67
2021/09/03 00:35:03;;;;;;;9.43;5.25;;;;;;;;;;6126748;23;20336;-67
2021/09/03 00:37:28;;;;;;;7.47;4.53;;;;;;;;;;6126694;23;20081;-67
2021/09/03 00:39:54;;;;;;;9.85;4.85;;;;;;;;;;6126387;23;20419;-67
2021/09/03 00:42:19;;;;;;;7.45;4.45;;;;;;;;;;6126376;23;20028;-67
2021/09/03 00:44:45;;;;;;;7.80;4.63;;;;;;;;;;6126366;23;20022;-67
2021/09/03 00:47:10;;;;;;;14.30;4.88;;;;;;;;;;6126407;23;20021;-67
2021/09/03 00:49:36;;;;;;;6.20;4.75;;;;;;;;;;6126254;23;20316;-67
2021/09/03 00:52:03;;;;;;;9.48;5.47;;;;;;;;;;6126298;23;20076;-67
2021/09/03 00:54:28;;;;;;;5.78;4.45;;;;;;;;;;6126210;23;20389;-68
2021/09/03 00:56:54;;;;;;;7.90;4.82;;;;;;;;;;6126005;23;20076;-68
2021/09/03 00:59:19;;;;;;;7.70;5.03;;;;;;;;;;6126286;23;20017;-68
2021/09/03 01:01:48;;;;;;;8.80;5.10;;;;;;;;;;6126318;23;20304;-67
2021/09/03 01:04:16;;;;;;;5.85;4.28;;;;;;;;;;6125662;23;20086;-67
2021/09/03 01:06:42;;;;;;;8.10;5.03;;;;;;;;;;6126219;23;20005;-67
2021/09/03 01:09:07;;;;;;;7.78;4.50;;;;;;;;;;6099957;23;20002;-67
2021/09/03 01:11:33;;;;;;;6.20;3.75;;;;;;;;;;6125908;23;20006;-67
2021/09/03 01:13:58;;;;;;;6.80;4.07;;;;;;;;;;6126001;23;20082;-67
2021/09/03 01:16:23;;;;;;;8.38;3.78;;;;;;;;;;6126032;23;20005;-67
2021/09/03 01:18:50;;;;;;;7.47;4.63;;;;;;;;;;6125941;23;20002;-67
2021/09/03 01:21:16;;;;;;;6.97;4.80;;;;;;;;;;6126114;23;20063;-67
2021/09/03 01:23:41;;;;;;;12.60;4.40;;;;;;;;;;6125986;23;20006;-68
2021/09/03 01:26:06;;;;;;;6.68;4.72;;;;;;;;;;6125841;23;20331;-68
2021/09/03 01:28:33;;;;;;;11.02;4.43;;;;;;;;;;6125681;23;20002;-67
2021/09/03 01:30:58;;;;;;;7.68;4.03;;;;;;;;;;6125951;23;20316;-67
2021/09/03 01:33:24;;;;;;;7.25;4.18;;;;;;;;;;6126312;23;20005;-67
2021/09/03 01:35:50;;;;;;;5.50;4.18;;;;;;;;;;6099954;23;20001;-67
2021/09/03 01:38:15;;;;;;;6.30;4.25;;;;;;;;;;6125799;23;20013;-67
2021/09/03 01:40:41;;;;;;;6.70;4.32;;;;;;;;;;6125858;23;20388;-67
2021/09/03 01:43:06;;;;;;;8.45;4.40;;;;;;;;;;6125769;23;20005;-67
2021/09/03 01:45:32;;;;;;;7.03;4.43;;;;;;;;;;6125999;23;20009;-67
2021/09/03 01:47:57;;;;;;;7.00;4.45;;;;;;;;;;6126091;23;20002;-67
2021/09/03 01:50:23;;;;;;;9.38;4.00;;;;;;;;;;6125635;23;20014;-67
2021/09/03 01:52:48;;;;;;;6.22;4.50;;;;;;;;;;6125872;23;20001;-67
2021/09/03 01:55:14;;;;;;;9.10;4.05;;;;;;;;;;6125871;23;20002;-67
2021/09/03 01:57:39;;;;;;;6.50;4.40;;;;;;;;;;6125748;23;20494;-67
2021/09/03 02:00:05;;;;;;;6.45;4.10;;;;;;;;;;6125822;23;20336;-67
2021/09/03 02:02:31;;;;;;;8.60;4.40;;;;;;;;;;6125393;23;20004;-67
2021/09/03 02:04:56;;;;;;;10.48;4.57;;;;;;;;;;6125365;23;20014;-67
2021/09/03 02:07:21;;;;;;;7.47;3.80;;;;;;;;;;6125872;23;20076;-67
2021/09/03 02:09:47;;;;;;;6.40;4.70;;;;;;;;;;6125424;23;20045;-67
2021/09/03 02:12:13;;;;;;;6.25;3.72;;;;;;;;;;6125942;23;20006;-67
2021/09/03 02:14:42;;;;;;;4.63;3.63;;;;;;;;;;6126630;23;20002;-67
2021/09/03 02:17:08;;;;;;;6.53;4.22;;;;;;;;;;6126443;23;20077;-67
2021/09/03 02:19:33;;;;;;;8.32;4.00;;;;;;;;;;6127048;23;20056;-67
2021/09/03 02:21:59;;;;;;;6.60;3.72;;;;;;;;;;6126531;23;19994;-67
2021/09/03 02:24:24;;;;;;;8.75;3.90;;;;;;;;;;6125662;23;20029;-67
2021/09/03 02:26:49;;;;;;;8.23;4.43;;;;;;;;;;6125626;23;20339;-67
2021/09/03 02:29:15;;;;;;;8.32;3.88;;;;;;;;;;6125853;23;20016;-67
2021/09/03 02:31:40;;;;;;;6.75;4.35;;;;;;;;;;6125794;23;20424;-67
2021/09/03 02:34:06;;;;;;;6.35;4.07;;;;;;;;;;6125790;23;20304;-67
2021/09/03 02:36:31;;;;;;;5.97;4.38;;;;;;;;;;6125521;23;19998;-67
2021/09/03 02:38:56;;;;;;;5.18;3.70;;;;;;;;;;6125818;23;20160;-67
2021/09/03 02:41:22;;;;;;;7.60;4.63;;;;;;;;;;6125798;23;20006;-67
2021/09/03 02:43:47;;;;;;;8.02;4.20;;;;;;;;;;6125442;23;20336;-67
2021/09/03 02:46:13;;;;;;;7.25;4.05;;;;;;;;;;6125259;23;20002;-67
2021/09/03 02:48:38;;;;;;;8.02;4.13;;;;;;;;;;6125626;23;20002;-67
2021/09/03 02:51:03;;;;;;;6.85;4.00;;;;;;;;;;6099941;23;20332;-67
2021/09/03 02:53:29;;;;;;;4.40;3.58;;;;;;;;;;6127895;23;20002;-67
2021/09/03 02:55:54;;;;;;;4.90;4.13;;;;;;;;;;6127387;23;20312;-67
2021/09/03 02:58:19;;;;;;;6.10;3.92;;;;;;;;;;6127422;23;19998;-67
2021/09/03 03:00:45;;;;;;;5.50;3.90;;;;;;;;;;6127282;23;20002;-68
2021/09/03 03:03:10;;;;;;;6.57;3.90;;;;;;;;;;6127114;23;20043;-67
2021/09/03 03:05:36;;;;;;;8.00;4.45;;;;;;;;;;6127745;23;20045;-68
2021/09/03 03:08:01;;;;;;;5.80;4.35;;;;;;;;;;6127258;23;20000;-67
2021/09/03 03:10:26;;;;;;;7.40;4.28;;;;;;;;;;6126634;23;20041;-67
2021/09/03 03:12:53;;;;;;;9.77;4.85;;;;;;;;;;6127503;23;20005;-67
2021/09/03 03:15:19;;;;;;;8.80;4.57;;;;;;;;;;6127269;23;20021;-67
2021/09/03 03:17:45;;;;;;;7.97;4.75;;;;;;;;;;6127246;23;20077;-67
2021/09/03 03:20:11;;;;;;;8.63;4.80;;;;;;;;;;6126941;23;19994;-67
2021/09/03 03:22:36;;;;;;;8.75;4.75;;;;;;;;;;6127485;23;20005;-67
2021/09/03 03:25:02;;;;;;;11.38;4.47;;;;;;;;;;6126825;23;20069;-67
2021/09/03 03:27:28;;;;;;;6.47;4.60;;;;;;;;;;6127232;23;20006;-67
2021/09/03 03:29:53;;;;;;;7.55;4.38;;;;;;;;;;6127068;23;20426;-67
2021/09/03 03:32:22;;;;;;;8.93;4.30;;;;;;;;;;6126673;23;20077;-67
2021/09/03 03:34:47;;;;;;;13.75;4.45;;;;;;;;;;6127409;23;20002;-67
2021/09/03 03:37:12;;;;;;;7.43;4.35;;;;;;;;;;6126993;23;20335;-67
2021/09/03 03:39:38;;;;;;;6.95;4.95;;;;;;;;;;6127327;23;20002;-67
2021/09/03 03:42:03;;;;;;;7.38;4.13;;;;;;;;;;6127176;23;20393;-67
2021/09/03 03:44:29;;;;;;;7.93;4.90;;;;;;;;;;6126800;23;20002;-67
2021/09/03 03:46:54;;;;;;;10.82;5.00;;;;;;;;;;6126973;23;20005;-67
2021/09/03 03:49:19;;;;;;;6.38;4.22;;;;;;;;;;6126933;23;20005;-67
2021/09/03 03:51:45;;;;;;;6.07;4.35;;;;;;;;;;6126979;23;20460;-67
2021/09/03 03:54:10;;;;;;;9.43;5.38;;;;;;;;;;6126928;23;20002;-67
2021/09/03 03:56:36;;;;;;;9.32;4.90;;;;;;;;;;6126730;23;20001;-67
2021/09/03 03:59:01;;;;;;;13.23;5.25;;;;;;;;;;6126757;23;19998;-67
2021/09/03 04:01:27;;;;;;;11.80;4.80;;;;;;;;;;6127334;23;20424;-67
2021/09/03 04:03:52;;;;;;;10.38;4.65;;;;;;;;;;6126754;23;20014;-67
2021/09/03 04:06:18;;;;;;;10.63;4.95;;;;;;;;;;6126537;23;20056;-67
2021/09/03 04:08:43;;;;;;;12.60;6.00;;;;;;;;;;6126755;23;19998;-67
2021/09/03 04:11:08;;;;;;;9.93;5.40;;;;;;;;;;6126650;23;20081;-67
2021/09/03 04:13:34;;;;;;;8.95;5.38;;;;;;;;;;6126878;23;20009;-67
2021/09/03 04:15:59;;;;;;;15.05;5.60;;;;;;;;;;6126502;23;19998;-67
2021/09/03 04:18:25;;;;;;;11.20;5.70;;;;;;;;;;6126600;23;19998;-67
2021/09/03 04:20:50;;;;;;;12.45;5.57;;;;;;;;;;6126597;23;20001;-67
2021/09/03 04:23:16;;;;;;;10.25;5.63;;;;;;;;;;6126665;23;20033;-67
2021/09/03 04:25:41;;;;;;;10.27;5.40;;;;;;;;;;6126674;23;20002;-67
2021/09/03 04:28:07;;;;;;;15.00;6.15;;;;;;;;;;6126857;23;20052;-67
2021/09/03 04:30:32;;;;;;;10.05;6.07;;;;;;;;;;6126460;23;20081;-67
2021/09/03 04:32:57;;;;;;;16.70;8.10;;;;;;;;;;6126483;23;20012;-67
2021/09/03 04:35:24;;;;;;;12.57;6.63;;;;;;;;;;6126774;23;19998;-67
2021/09/03 04:37:50;;;;;;;11.20;6.13;;;;;;;;;;6126805;23;19994;-67
2021/09/03 04:40:17;;;;;;;9.52;6.40;;;;;;;;;;6126104;23;19998;-67
2021/09/03 04:42:43;;;;;;;9.02;6.60;;;;;;;;;;6126362;23;20009;-67
2021/09/03 04:45:09;;;;;;;11.98;6.57;;;;;;;;;;6126720;23;20006;-67
2021/09/03 04:47:35;;;;;;;10.70;6.65;;;;;;;;;;6094792;23;19991;-67
2021/09/03 04:50:01;;;;;;;12.13;7.07;;;;;;;;;;6096562;23;20432;-67
2021/09/03 04:52:26;;;;;;;12.63;7.10;;;;;;;;;;6126558;23;19998;-67
2021/09/03 04:54:52;;;;;;;13.32;7.55;;;;;;;;;;6125988;23;20001;-67
2021/09/03 04:57:17;;;;;;;14.65;6.97;;;;;;;;;;6126431;23;20040;-67
2021/09/03 04:59:43;;;;;;;20.10;6.97;;;;;;;;;;6100284;23;19998;-67
2021/09/03 05:02:08;;;;;;;13.38;6.63;;;;;;;;;;6125933;23;20003;-66
2021/09/03 05:04:34;;;;;;;20.10;6.85;;;;;;;;;;6125912;23;20026;-67
2021/09/03 05:06:59;;;;;;;11.88;7.38;;;;;;;;;;6125774;23;20052;-67
2021/09/03 05:09:24;;;;;;;15.18;7.50;;;;;;;;;;6126175;23;20006;-67
2021/09/03 05:11:50;;;;;;;11.82;6.10;;;;;;;;;;6125829;23;20448;-67
2021/09/03 05:14:15;;;;;;;9.73;6.45;;;;;;;;;;6125520;23;20479;-67
2021/09/03 05:16:41;;;;;;;11.05;7.47;;;;;;;;;;6126239;23;20339;-67
2021/09/03 05:19:07;;;;;;;17.98;6.55;;;;;;;;;;6126213;23;20053;-67
2021/09/03 05:21:33;;;;;;;15.82;7.20;;;;;;;;;;6126339;23;20006;-66
2021/09/03 05:23:58;;;;;;;10.82;7.65;;;;;;;;;;6125898;23;20001;-67
2021/09/03 05:26:24;;;;;;;23.95;7.55;;;;;;;;;;6125951;23;20491;-67
2021/09/03 05:28:49;;;;;;;10.57;6.40;;;;;;;;;;6125783;23;20419;-67
2021/09/03 05:31:15;;;;;;;18.55;6.65;;;;;;;;;;6125847;23;20080;-67
2021/09/03 05:33:40;;;;;;;12.00;7.82;;;;;;;;;;6125877;23;19998;-67
2021/09/03 05:36:06;;;;;;;28.50;7.70;;;;;;;;;;6126041;23;19994;-67
2021/09/03 05:38:31;;;;;;;16.92;6.93;;;;;;;;;;6125335;23;20458;-67
2021/09/03 05:40:57;;;;;;;12.93;6.30;;;;;;;;;;6125413;23;20001;-67
2021/09/03 05:43:22;;;;;;;24.98;5.68;;;;;;;;;;6124344;23;20002;-67
2021/09/03 05:45:48;;;;;;;12.20;6.00;;;;;;;;;;6124962;23;20004;-67
2021/09/03 05:48:13;;;;;;;17.45;6.45;;;;;;;;;;6125032;23;20001;-66
2021/09/03 05:50:39;;;;;;;15.73;6.53;;;;;;;;;;6125487;23;20057;-65
2021/09/03 05:53:04;;;;;;;18.15;6.95;;;;;;;;;;6099575;23;19998;-64
2021/09/03 05:55:29;;;;;;;8.93;5.90;;;;;;;;;;6125437;23;20340;-66
2021/09/03 05:57:57;;;;;;;11.77;6.38;;;;;;;;;;6125823;23;20009;-66
2021/09/03 06:00:22;;;;;;;13.88;5.57;;;;;;;;;;6124273;23;20005;-66
2021/09/03 06:02:48;;;;;;;19.42;6.53;;;;;;;;;;6124127;23;20002;-67
2021/09/03 06:05:13;;;;;;;7.47;5.28;;;;;;;;;;6098630;23;20053;-66
2021/09/03 06:07:38;;;;;;;12.63;5.55;;;;;;;;;;6125186;23;20057;-66
2021/09/03 06:10:04;;;;;;;8.45;5.30;;;;;;;;;;6125594;23;20094;-66
2021/09/03 06:12:30;;;;;;;10.70;5.40;;;;;;;;;;6123717;23;20002;-69
2021/09/03 06:14:55;;;;;;;7.05;4.63;;;;;;;;;;6126153;23;20374;-66
2021/09/03 06:17:20;;;;;;;13.23;5.10;;;;;;;;;;6127447;23;20002;-67
2021/09/03 06:19:46;;;;;;;14.73;4.78;;;;;;;;;;6125424;23;20076;-67
2021/09/03 06:22:11;;;;;;;10.13;4.28;;;;;;;;;;6124412;23;20336;-65
2021/09/03 06:24:37;;;;;;;8.20;4.47;;;;;;;;;;6123960;23;20002;-67
2021/09/03 06:27:03;;;;;;;13.48;4.93;;;;;;;;;;6127200;23;20002;-66
2021/09/03 06:29:41;;;;;;;7.53;4.32;;;;;;;;;;6097522;23;20017;-66
2021/09/03 06:32:14;;;;;;;10.93;4.38;;;;;;;;;;6096350;23;20020;-65
2021/09/03 06:34:41;;;;;;;5.95;3.90;;;;;;;;;;6127415;23;20085;-67
2021/09/03 06:37:07;;;;;;;7.13;3.72;;;;;;;;;;6125461;23;20002;-65
2021/09/03 06:39:33;;;;;;;9.82;3.30;;;;;;;;;;6101128;23;20023;-67
2021/09/03 06:41:58;;;;;;;7.55;3.70;;;;;;;;;;6126588;23;19998;-65
2021/09/03 06:44:24;;;;;;;8.82;3.78;;;;;;;;;;6125904;23;20006;-65
2021/09/03 06:46:49;;;;;;;8.77;4.38;;;;;;;;;;6126603;23;20324;-66
2021/09/03 06:49:14;;;;;;;6.75;3.58;;;;;;;;;;6124095;23;20506;-68
2021/09/03 06:51:40;;;;;;;7.00;3.80;;;;;;;;;;6125301;23;20005;-67
2021/09/03 06:54:05;;;;;;;11.02;3.92;;;;;;;;;;6126008;23;20088;-69
2021/09/03 06:56:30;;;;;;;11.45;4.32;;;;;;;;;;6126146;23;20025;-70
2021/09/03 06:58:56;;;;;;;7.45;4.20;;;;;;;;;;6099949;23;20000;-69
2021/09/03 07:01:21;;;;;;;10.32;3.83;;;;;;;;;;6127114;23;20029;-69
2021/09/03 07:03:47;;;;;;;17.48;4.15;;;;;;;;;;6126260;23;20021;-70
2021/09/03 07:06:12;;;;;;;12.65;3.70;;;;;;;;;;6125777;23;20029;-70
2021/09/03 07:08:37;;;;;;;7.57;3.13;;;;;;;;;;6127757;23;20427;-69
2021/09/03 07:11:03;;;;;;;8.32;3.08;;;;;;;;;;6127486;23;20014;-70
2021/09/03 07:13:28;;;;;;;4.43;2.80;;;;;;;;;;6102134;23;19998;-70
2021/09/03 07:15:54;;;;;;;5.05;3.15;;;;;;;;;;6126392;23;20076;-69
2021/09/03 07:18:19;;;;;;;9.10;3.03;;;;;;;;;;6126338;23;20483;-69
2021/09/03 07:20:44;;;;;;;6.50;2.90;;;;;;;;;;6125733;23;20001;-72
2021/09/03 07:23:10;;;;;;;4.43;3.10;;;;;;;;;;6127050;23;20005;-75
2021/09/03 07:25:35;;;;;;;12.40;3.22;;;;;;;;;;6100956;23;20428;-73
2021/09/03 07:28:01;;;;;;;11.95;3.65;;;;;;;;;;6126173;23;19994;-69
2021/09/03 07:30:26;;;;;;;76.75;10.55;;;;;;;;;;6125534;23;20056;-72
2021/09/03 07:32:51;;;;;;;31.73;6.25;;;;;;;;;;6126961;23;20002;-71
2021/09/03 07:35:17;;;;;;;69.47;9.40;;;;;;;;;;6125844;23;20030;-73
2021/09/03 07:37:42;;;;;;;31.58;6.93;;;;;;;;;;6125450;23;19998;-74
2021/09/03 07:40:09;;;;;;;58.63;8.88;;;;;;;;;;6126093;23;20029;-74
2021/09/03 07:42:34;;;;;;;11.60;3.90;;;;;;;;;;6126625;23;20002;-71
2021/09/03 07:45:00;;;;;;;17.10;3.88;;;;;;;;;;6126922;23;20024;-72
2021/09/03 07:47:25;;;;;;;16.50;3.97;;;;;;;;;;6127376;23;20002;-70
2021/09/03 07:49:51;;;;;;;10.65;3.42;;;;;;;;;;6100199;23;20065;-73
2021/09/03 07:52:16;;;;;;;8.57;2.90;;;;;;;;;;6126604;23;19998;-72
2021/09/03 07:54:43;;;;;;;5.93;2.80;;;;;;;;;;6100603;23;20010;-71
2021/09/03 07:57:08;;;;;;;6.88;3.28;;;;;;;;;;6125977;23;20006;-72
2021/09/03 07:59:34;;;;;;;9.77;2.83;;;;;;;;;;6127135;23;20367;-71
2021/09/03 08:01:59;;;;;;;23.83;3.72;;;;;;;;;;6125628;23;20080;-68
2021/09/03 08:04:24;;;;;;;7.05;3.33;;;;;;;;;;6123899;23;20022;-69
2021/09/03 08:06:50;;;;;;;4.13;3.00;;;;;;;;;;6126012;23;20006;-70
2021/09/03 08:09:15;;;;;;;6.22;3.03;;;;;;;;;;6126362;23;20005;-76
2021/09/03 08:11:40;;;;;;;5.68;3.55;;;;;;;;;;6125886;23;20073;-69
2021/09/03 08:14:06;;;;;;;8.68;3.08;;;;;;;;;;6126044;23;19998;-70
2021/09/03 08:16:31;;;;;;;5.15;3.28;;;;;;;;;;6126259;23;20002;-70
2021/09/03 08:18:57;;;;;;;9.07;2.78;;;;;;;;;;6100644;23;20516;-70
2021/09/03 08:21:22;;;;;;;8.75;3.33;;;;;;;;;;6126177;23;20316;-69
2021/09/03 08:23:47;;;;;;;7.57;3.00;;;;;;;;;;6126338;23;20008;-70
2021/09/03 08:26:13;;;;;;;6.85;3.35;;;;;;;;;;6120395;23;20056;-67
2021/09/03 08:28:38;;;;;;;7.82;3.10;;;;;;;;;;6125569;23;20093;-70
2021/09/03 08:31:04;;;;;;;9.15;2.92;;;;;;;;;;6125866;23;20073;-68
2021/09/03 08:33:29;;;;;;;5.47;2.83;;;;;;;;;;6125125;23;20423;-68
2021/09/03 08:35:55;;;;;;;3.75;2.72;;;;;;;;;;6124844;23;20009;-69
2021/09/03 08:38:20;;;;;;;5.28;3.00;;;;;;;;;;6125478;23;20084;-68
2021/09/03 08:40:46;;;;;;;4.88;2.90;;;;;;;;;;6126091;23;20344;-72
2021/09/03 08:43:11;;;;;;;7.85;2.90;;;;;;;;;;6125954;23;19997;-71
2021/09/03 08:45:37;;;;;;;6.63;3.83;;;;;;;;;;6126519;23;20323;-70
2021/09/03 08:48:03;;;;;;;8.30;3.00;;;;;;;;;;6126173;23;20073;-70
2021/09/03 08:50:28;;;;;;;13.15;2.90;;;;;;;;;;6125456;23;20009;-71
2021/09/03 08:52:54;;;;;;;4.25;2.75;;;;;;;;;;6126154;23;20487;-67
2021/09/03 08:55:21;;;;;;;3.60;2.50;;;;;;;;;;6126010;23;20420;-66
2021/09/03 08:57:46;;;;;;;13.10;3.10;;;;;;;;;;6125405;23;19998;-68
2021/09/03 09:00:13;;;;;;;7.30;2.72;;;;;;;;;;6125646;23;20085;-69
2021/09/03 09:02:55;;;;;;;5.95;2.95;;;;;;;;;;6094340;23;19998;-68
2021/09/03 09:05:20;;;;;;;6.40;2.72;;;;;;;;;;6123373;23;20025;-66
2021/09/03 09:07:46;;;;;;;4.63;3.03;;;;;;;;;;6125538;23;20493;-68
2021/09/03 09:10:11;;;;;;;6.05;2.58;;;;;;;;;;6124826;23;20045;-67
2021/09/03 09:12:44;;;;;;;3.28;2.40;;;;;;;;;;6125584;23;20076;-74
2021/09/03 09:15:10;;;;;;;6.53;3.00;;;;;;;;;;6126483;23;20008;-72
2021/09/03 09:17:37;;;;;;;5.18;2.35;;;;;;;;;;6126035;23;20390;-73
2021/09/03 09:20:04;;;;;;;14.80;3.45;;;;;;;;;;6099263;23;20088;-71
2021/09/03 09:22:49;;;;;;;4.70;2.25;;;;;;;;;;6100164;23;20399;-77
2021/09/03 09:25:34;;;;;;;5.90;2.53;;;;;;;;;;6126677;23;20324;-71
2021/09/03 09:28:19;;;;;;;4.35;2.78;;;;;;;;;;6125137;23;20002;-70
2021/09/03 09:30:44;;;;;;;14.45;3.42;;;;;;;;;;6125871;23;20340;-69
2021/09/03 09:33:16;;;;;;;8.27;2.65;;;;;;;;;;6124904;23;20002;-70
2021/09/03 09:35:46;;;;;;;3.50;2.50;;;;;;;;;;6125830;23;20002;-69
2021/09/03 09:38:12;;;;;;;6.13;2.40;;;;;;;;;;6099151;23;20040;-69
2021/09/03 09:40:52;;;;;;;3.25;2.63;;;;;;;;;;6099201;23;20002;-70
2021/09/03 09:43:18;;;;;;;;;;;;;;;;;;6100316;23;20025;-69
2021/09/03 09:45:43;;;;;;;5.90;2.40;;;;;;;;;;6099730;23;19929;-70
2021/09/03 09:48:09;;;;;;;6.00;2.17;;;;;;;;;;6124760;23;20002;-69
2021/09/03 09:50:34;;;;;;;3.50;2.35;;;;;;;;;;6099883;23;20017;-69
2021/09/03 09:53:10;;;;;;;7.30;2.60;;;;;;;;;;6125575;23;20427;-69
2021/09/03 09:55:37;;;;;;;5.18;2.38;;;;;;;;;;6124867;23;20002;-70
2021/09/03 09:58:03;;;;;;;3.75;2.50;;;;;;;;;;6124753;23;19998;-69
2021/09/03 10:00:32;;;;;;;4.72;2.08;;;;;;;;;;6096340;23;20009;-68
2021/09/03 10:03:02;;;;;;;3.20;2.00;;;;;;;;;;6123497;23;20012;-70
2021/09/03 10:05:29;;;;;;;3.00;2.15;;;;;;;;;;6124256;23;20021;-70
2021/09/03 10:07:55;;;;;;;3.28;2.03;;;;;;;;;;6125472;23;20044;-70
2021/09/03 10:10:21;;;;;;;4.53;2.40;;;;;;;;;;6124121;23;20010;-70
2021/09/03 10:12:46;;;;;;;2.70;2.03;;;;;;;;;;6124811;23;20080;-69
2021/09/03 10:15:12;;;;;;;5.68;2.10;;;;;;;;;;6126636;23;19994;-68
2021/09/03 10:17:37;;;;;;;7.15;2.35;;;;;;;;;;6100222;23;20133;-71
2021/09/03 10:20:03;;;;;;;6.85;2.10;;;;;;;;;;6124837;23;19998;-70
2021/09/03 10:22:40;;;;;;;6.57;2.00;;;;;;;;;;6125737;23;19998;-69
2021/09/03 10:25:07;;;;;;;4.13;1.88;;;;;;;;;;6123971;23;19998;-69
2021/09/03 10:27:32;;;;;;;2.58;1.73;;;;;;;;;;6125498;23;20014;-71
2021/09/03 10:30:12;;;;;;;2.95;2.33;;;;;;;;;;6098773;23;20056;-69
2021/09/03 10:32:38;;;;;;;3.72;1.80;;;;;;;;;;6099299;23;20544;-71
2021/09/03 10:35:12;;;;;;;5.22;2.03;;;;;;;;;;6124407;23;20002;-69
2021/09/03 10:37:38;;;;;;;3.60;2.40;;;;;;;;;;6099756;23;20013;-69
2021/09/03 10:40:14;;;;;;;5.00;2.40;;;;;;;;;;6125523;23;20345;-69
2021/09/03 10:42:48;;;;;;;3.22;2.33;;;;;;;;;;6125961;23;20441;-66
2021/09/03 10:45:16;;;;;;;3.53;2.55;;;;;;;;;;6124836;23;19998;-66
2021/09/03 10:47:45;;;;;;;5.43;2.60;;;;;;;;;;6098713;23;20005;-69
2021/09/03 10:50:16;;;;;;;6.57;3.40;;;;;;;;;;6124381;23;20045;-67
2021/09/03 10:53:00;;;;;;;4.78;2.72;;;;;;;;;;6125026;23;20089;-66
2021/09/03 10:55:44;;;;;;;5.22;2.65;;;;;;;;;;6124487;23;19993;-67
2021/09/03 10:58:09;;;;;;;2.65;2.10;;;;;;;;;;6124175;23;20002;-66
2021/09/03 11:00:35;;;;;;;3.58;2.10;;;;;;;;;;6125048;23;20467;-66
2021/09/03 11:03:20;;;;;;;4.28;2.40;;;;;;;;;;6124513;23;20088;-67
2021/09/03 11:05:46;;;;;;;3.13;2.05;;;;;;;;;;6064342;23;20015;-68
2021/09/03 11:08:31;;;;;;;5.38;2.58;;;;;;;;;;6066318;23;20082;-70
2021/09/03 11:11:18;;;;;;;2.75;2.15;;;;;;;;;;6064369;23;20017;-67
2021/09/03 11:13:50;;;;;;;6.88;2.55;;;;;;;;;;6056529;23;20129;-74
2021/09/03 11:16:34;;;;;;;3.47;2.35;;;;;;;;;;6068388;23;20002;-69
2021/09/03 11:19:10;;;;;;;8.57;2.42;;;;;;;;;;6068401;23;20009;-69
2021/09/03 11:21:37;;;;;;;5.15;2.42;;;;;;;;;;6067633;23;20341;-70
2021/09/03 11:24:03;;;;;;;3.67;2.40;;;;;;;;;;6067714;23;20306;-68
2021/09/03 11:26:30;;;;;;;6.30;2.35;;;;;;;;;;6067563;23;20080;-69
2021/09/03 11:28:58;;;;;;;2.65;2.33;;;;;;;;;;6068790;23;20377;-69
2021/09/03 11:31:24;;;;;;;2.97;2.15;;;;;;;;;;6067416;23;20018;-68
2021/09/03 11:33:49;;;;;;;5.10;2.42;;;;;;;;;;6067543;23;20003;-68
2021/09/03 11:36:15;;;;;;;5.05;2.25;;;;;;;;;;6068682;23;20305;-71
2021/09/03 11:38:41;;;;;;;3.42;2.28;;;;;;;;;;6068414;23;20424;-72
2021/09/03 11:41:07;;;;;;;3.33;2.45;;;;;;;;;;6066930;23;20013;-72
2021/09/03 11:43:32;;;;;;;5.28;2.50;;;;;;;;;;6068849;23;19991;-70
2021/09/03 11:45:58;;;;;;;7.25;2.40;;;;;;;;;;6068605;23;20010;-69
2021/09/03 11:48:24;;;;;;;6.95;2.80;;;;;;;;;;6067821;23;20018;-69
2021/09/03 11:50:49;;;;;;;8.85;2.80;;;;;;;;;;6068637;23;20436;-69
2021/09/03 11:53:23;;;;;;;3.83;2.10;;;;;;;;;;6067334;23;20447;-69
2021/09/03 11:55:49;;;;;;;5.00;2.50;;;;;;;;;;6067964;23;20047;-68
2021/09/03 11:58:16;;;;;;;4.90;2.60;;;;;;;;;;6067896;23;20007;-68
2021/09/03 12:00:43;;;;;;;5.18;2.45;;;;;;;;;;6066988;23;20010;-69
2021/09/03 12:03:13;;;;;;;3.42;2.60;;;;;;;;;;6068037;23;20002;-67
2021/09/03 12:05:39;;;;;;;3.80;2.45;;;;;;;;;;6097381;23;20053;-69
2021/09/03 12:08:06;;;;;;;6.35;2.67;;;;;;;;;;6096863;23;20006;-68
2021/09/03 12:10:32;;;;;;;3.42;2.53;;;;;;;;;;6095000;23;20045;-69
2021/09/03 12:13:04;;;;;;;2.67;2.47;;;;;;;;;;6097294;23;20364;-69
2021/09/03 12:15:29;;;;;;;5.10;2.70;;;;;;;;;;6070844;23;20002;-68
2021/09/03 12:17:55;;;;;;;2.38;2.17;;;;;;;;;;6095709;23;20010;-70
2021/09/03 12:20:22;;;;;;;13.18;3.03;;;;;;;;;;6099493;23;19995;-68
2021/09/03 12:22:49;;;;;;;3.95;2.40;;;;;;;;;;6097939;23;20030;-67
2021/09/03 12:25:14;;;;;;;2.83;2.22;;;;;;;;;;6074084;23;20038;-67
2021/09/03 12:27:40;;;;;;;11.07;2.60;;;;;;;;;;6093480;23;20006;-68
2021/09/03 12:30:11;;;;;;;2.85;2.38;;;;;;;;;;6093548;23;20015;-67
2021/09/03 12:32:36;;;;;;;6.88;2.38;;;;;;;;;;6094127;23;19999;-68
2021/09/03 12:35:07;;;;;;;3.30;2.08;;;;;;;;;;6094587;23;20006;-66
2021/09/03 12:37:32;;;;;;;3.85;2.28;;;;;;;;;;6094756;23;20085;-67
2021/09/03 12:40:03;;;;;;;4.40;2.35;;;;;;;;;;6094196;23;20421;-66
2021/09/03 12:42:37;;;;;;;6.78;2.72;;;;;;;;;;6070210;23;20002;-72
2021/09/03 12:45:02;;;;;;;5.55;2.80;;;;;;;;;;6094139;23;20010;-70
2021/09/03 12:47:28;;;;;;;5.25;3.03;;;;;;;;;;6066924;23;20041;-71
2021/09/03 12:49:54;;;;;;;3.92;2.35;;;;;;;;;;6094249;23;20337;-70
2021/09/03 12:52:19;;;;;;;4.40;2.28;;;;;;;;;;6094325;23;20013;-71
2021/09/03 12:54:44;;;;;;;6.47;2.53;;;;;;;;;;6096396;23;20006;-73
2021/09/03 12:57:16;;;;;;;5.28;2.40;;;;;;;;;;6096138;23;20062;-70
2021/09/03 12:59:41;;;;;;;3.45;2.33;;;;;;;;;;6097087;23;20005;-73
2021/09/03 13:02:07;;;;;;;9.93;3.30;;;;;;;;;;6096009;23;20487;-75
2021/09/03 13:04:32;;;;;;;9.25;2.47;;;;;;;;;;6095143;23;20026;-71
2021/09/03 13:06:58;;;;;;;3.92;2.50;;;;;;;;;;6096575;23;20435;-70
2021/09/03 13:09:25;;;;;;;5.72;2.65;;;;;;;;;;6094210;23;20018;-69
2021/09/03 13:11:51;;;;;;;4.03;2.38;;;;;;;;;;6094382;23;20321;-69
2021/09/03 13:14:17;;;;;;;5.22;2.70;;;;;;;;;;6094963;23;20006;-74
2021/09/03 13:16:44;;;;;;;3.85;2.47;;;;;;;;;;6095839;23;20023;-71
2021/09/03 13:19:11;;;;;;;5.15;2.38;;;;;;;;;;6096847;23;20050;-68
2021/09/03 13:21:37;;;;;;;4.93;2.65;;;;;;;;;;6096126;23;19995;-69
2021/09/03 13:24:03;;;;;;;5.25;2.53;;;;;;;;;;6095803;23;20002;-74
2021/09/03 13:26:29;;;;;;;5.30;2.60;;;;;;;;;;6095726;23;20320;-70
2021/09/03 13:28:55;;;;;;;6.90;2.25;;;;;;;;;;6096453;23;20005;-69
2021/09/03 13:31:21;;;;;;;6.60;2.42;;;;;;;;;;6096484;23;20008;-73
2021/09/03 13:33:50;;;;;;;7.60;2.33;;;;;;;;;;6093073;23;19994;-73
2021/09/03 13:36:17;;;;;;;5.32;2.55;;;;;;;;;;6095783;23;20033;-73
2021/09/03 13:38:43;;;;;;;5.72;3.08;;;;;;;;;;6096830;23;20050;-73
2021/09/03 13:41:09;;;;;;;5.70;2.78;;;;;;;;;;6096603;23;20328;-73
2021/09/03 13:43:35;;;;;;;5.63;2.63;;;;;;;;;;6096488;23;20080;-73
2021/09/03 13:46:01;;;;;;;7.00;2.40;;;;;;;;;;6096435;23;20447;-72
2021/09/03 13:48:26;;;;;;;8.30;2.60;;;;;;;;;;6094908;23;20002;-73
2021/09/03 13:50:52;;;;;;;6.55;2.72;;;;;;;;;;6096696;23;20029;-73
2021/09/03 13:53:17;;;;;;;4.22;3.10;;;;;;;;;;6094786;23;20013;-72
2021/09/03 13:55:43;;;;;;;6.22;2.45;;;;;;;;;;6096510;23;20006;-73
2021/09/03 13:58:08;;;;;;;2.80;2.25;;;;;;;;;;6096257;23;20005;-73
2021/09/03 14:00:34;;;;;;;3.92;2.45;;;;;;;;;;6094824;23;20009;-72
2021/09/03 14:02:59;;;;;;;3.90;2.33;;;;;;;;;;6096333;23;19998;-71
2021/09/03 14:05:25;;;;;;;4.40;2.47;;;;;;;;;;6123683;23;20025;-71
2021/09/03 14:07:51;;;;;;;4.93;2.75;;;;;;;;;;6125673;23;20010;-72
2021/09/03 14:10:16;;;;;;;3.47;2.58;;;;;;;;;;6125343;23;20010;-71
2021/09/03 14:12:41;;;;;;;5.03;2.60;;;;;;;;;;6125766;23;20416;-72
2021/09/03 14:15:07;;;;;;;8.90;2.75;;;;;;;;;;6125599;23;20375;-72
2021/09/03 14:17:34;;;;;;;6.00;2.63;;;;;;;;;;6125497;23;20010;-72
2021/09/03 14:19:59;;;;;;;5.60;2.63;;;;;;;;;;6099798;23;20002;-72
2021/09/03 14:22:26;;;;;;;4.60;2.97;;;;;;;;;;6125516;23;20066;-72
2021/09/03 14:24:51;;;;;;;4.05;2.75;;;;;;;;;;6125873;23;20002;-72
2021/09/03 14:27:16;;;;;;;5.15;3.10;;;;;;;;;;6099511;23;20329;-73
2021/09/03 14:29:42;;;;;;;5.93;2.55;;;;;;;;;;6125894;23;20068;-72
2021/09/03 14:32:07;;;;;;;4.20;2.70;;;;;;;;;;6125140;23;20072;-72
2021/09/03 14:34:33;;;;;;;8.77;2.72;;;;;;;;;;6125750;23;20085;-73
2021/09/03 14:36:59;;;;;;;3.42;2.33;;;;;;;;;;6125695;23;20335;-73